createdAt,value
2019-05-03T00:02:28.967Z,99198.06
2019-05-03T00:04:37.849Z,99193.02
2019-05-03T00:06:45.260Z,99197.75
2019-05-03T00:08:52.611Z,99195.44
2019-05-03T00:11:00.043Z,99201.83
2019-05-03T00:13:08.126Z,99187.29
2019-05-03T00:15:33.220Z,99198.75
2019-05-03T00:17:41.990Z,99189.53
2019-05-03T00:19:49.833Z,99193.70
2019-05-03T00:21:57.070Z,99190.28
2019-05-03T00:24:04.534Z,99184.27
2019-05-03T00:26:12.136Z,99192.70
2019-05-03T00:28:21.567Z,99190.14
2019-05-03T00:30:28.579Z,99196.23
2019-05-03T00:32:35.944Z,99192.64
2019-05-03T00:34:46.664Z,99188.00
2019-05-03T00:36:57.575Z,99187.16
2019-05-03T00:39:24.689Z,99193.27
2019-05-03T00:41:32.117Z,99184.05
2019-05-03T00:43:42.243Z,99184.39
2019-05-03T00:45:49.302Z,99182.73
2019-05-03T00:47:56.601Z,99183.14
2019-05-03T00:50:04.105Z,99181.49
2019-05-03T00:52:11.669Z,99178.44
2019-05-03T00:54:19.279Z,99187.94
2019-05-03T00:56:26.526Z,99174.53
2019-05-03T00:58:35.478Z,99180.78
2019-05-03T01:00:43.466Z,99183.64
2019-05-03T01:02:51.681Z,99186.89
2019-05-03T01:04:59.435Z,99185.14
2019-05-03T01:07:06.779Z,99188.20
2019-05-03T01:12:37.668Z,99181.94
2019-05-03T01:14:46.588Z,99182.50
2019-05-03T01:16:53.912Z,99174.73
2019-05-03T01:19:02.627Z,99177.84
2019-05-03T01:21:11.706Z,99179.20
2019-05-03T01:23:19.245Z,99165.11
2019-05-03T01:25:32.141Z,99157.16
2019-05-03T01:27:35.410Z,99158.89
2019-05-03T01:29:43.548Z,99153.29
2019-05-03T01:31:52.980Z,99154.31
2019-05-03T01:34:02.231Z,99145.59
2019-05-03T01:36:09.231Z,99145.65
2019-05-03T01:38:19.287Z,99151.27
2019-05-03T01:40:25.520Z,99139.39
2019-05-03T01:42:32.807Z,99137.50
2019-05-03T01:44:40.095Z,99143.77
2019-05-03T01:46:48.761Z,99141.23
2019-05-03T01:49:05.321Z,99144.47
2019-05-03T01:51:30.122Z,99137.44
2019-05-03T01:53:38.215Z,99138.42
2019-05-03T01:55:54.647Z,99147.31
2019-05-03T01:58:02.562Z,99147.47
2019-05-03T02:00:15.743Z,99161.38
2019-05-03T02:02:38.653Z,99159.58
2019-05-03T02:04:50.607Z,99161.56
2019-05-03T02:06:57.825Z,99163.10
2019-05-03T02:09:07.049Z,99148.39
2019-05-03T02:11:14.432Z,99146.72
2019-05-03T02:13:22.950Z,99143.95
2019-05-03T02:15:30.402Z,99143.66
2019-05-03T02:17:37.731Z,99148.69
2019-05-03T02:19:45.064Z,99154.19
2019-05-03T02:21:52.455Z,99146.22
2019-05-03T02:23:59.771Z,99147.09
2019-05-03T02:26:06.978Z,99149.00
2019-05-03T02:28:14.217Z,99149.59
2019-05-03T02:30:24.932Z,99148.92
2019-05-03T02:32:33.219Z,99141.50
2019-05-03T02:34:43.567Z,99156.23
2019-05-03T02:36:49.367Z,99149.50
2019-05-03T02:38:57.050Z,99136.33
2019-05-03T02:41:04.687Z,99141.50
2019-05-03T02:43:25.635Z,99146.28
2019-05-03T02:45:35.095Z,99141.83
2019-05-03T02:47:51.879Z,99139.70
2019-05-03T02:50:11.965Z,99135.06
2019-05-03T02:52:36.686Z,99136.05
2019-05-03T02:54:46.262Z,99146.93
2019-05-03T02:56:52.363Z,99139.76
2019-05-03T02:58:59.704Z,99142.05
2019-05-03T03:01:08.048Z,99145.77
2019-05-03T03:03:16.594Z,99141.46
2019-05-03T03:05:25.315Z,99152.35
2019-05-03T03:07:37.509Z,99150.09
2019-05-03T03:09:45.340Z,99149.13
2019-05-03T03:11:56.367Z,99152.73
2019-05-03T03:14:07.251Z,99149.37
2019-05-03T03:16:20.559Z,99161.38
2019-05-03T03:18:26.691Z,99156.10
2019-05-03T03:20:38.279Z,99166.06
2019-05-03T03:22:47.087Z,99170.12
2019-05-03T03:25:00.094Z,99166.84
2019-05-03T03:27:11.477Z,99167.96
2019-05-03T03:29:25.305Z,99166.41
2019-05-03T03:32:08.399Z,99167.48
2019-05-03T03:34:18.066Z,99170.59
2019-05-03T03:36:46.198Z,99177.19
2019-05-03T03:38:35.144Z,99174.55
2019-05-03T03:40:45.319Z,99174.66
2019-05-03T03:42:55.927Z,99174.27
2019-05-03T03:45:06.005Z,99176.22
2019-05-03T03:47:17.117Z,99184.36
2019-05-03T03:49:26.372Z,99189.83
2019-05-03T03:51:36.918Z,99187.09
2019-05-03T03:53:47.935Z,99187.20
2019-05-03T03:55:57.593Z,99188.90
2019-05-03T03:58:06.683Z,99193.44
2019-05-03T04:00:16.313Z,99199.48
2019-05-03T04:02:26.195Z,99198.47
2019-05-03T04:04:35.607Z,99195.10
2019-05-03T04:06:42.532Z,99189.10
2019-05-03T04:08:49.932Z,99193.64
2019-05-03T04:10:57.137Z,99194.95
2019-05-03T04:13:07.104Z,99204.66
2019-05-03T04:15:40.629Z,99192.59
2019-05-03T04:18:07.576Z,99201.92
2019-05-03T04:20:16.805Z,99214.72
2019-05-03T04:22:25.391Z,99214.21
2019-05-03T04:24:35.162Z,99216.17
2019-05-03T04:26:45.239Z,99225.23
2019-05-03T04:28:55.875Z,99224.83
2019-05-03T04:31:02.181Z,99230.02
2019-05-03T04:33:09.558Z,99238.56
2019-05-03T04:35:16.875Z,99245.84
2019-05-03T04:37:26.636Z,99249.80
2019-05-03T04:39:35.613Z,99249.70
2019-05-03T04:41:45.201Z,99251.95
2019-05-03T04:43:51.215Z,99261.01
2019-05-03T04:46:08.775Z,99270.39
2019-05-03T04:48:16.309Z,99280.30
2019-05-03T04:50:25.547Z,99281.14
2019-05-03T04:52:32.695Z,99274.38
2019-05-03T04:54:59.575Z,99282.55
2019-05-03T04:57:07.031Z,99276.14
2019-05-03T04:59:16.003Z,99270.66
2019-05-03T05:01:25.940Z,99280.40
2019-05-03T05:03:32.353Z,99275.83
2019-05-03T05:05:39.578Z,99280.78
2019-05-03T05:07:46.902Z,99278.55
2019-05-03T05:09:56.192Z,99284.58
2019-05-03T05:12:05.590Z,99289.34
2019-05-03T05:14:12.206Z,99296.98
2019-05-03T05:16:19.499Z,99292.45
2019-05-03T05:18:41.014Z,99292.24
2019-05-03T05:21:04.570Z,99303.20
2019-05-03T05:23:11.994Z,99306.45
2019-05-03T05:25:21.650Z,99308.08
2019-05-03T05:27:47.939Z,99314.17
2019-05-03T05:29:47.087Z,99314.61
2019-05-03T05:31:54.848Z,99316.63
2019-05-03T05:34:02.509Z,99309.30
2019-05-03T05:36:09.757Z,99313.64
2019-05-03T05:38:17.002Z,99321.50
2019-05-03T05:40:25.012Z,99317.11
2019-05-03T05:42:32.177Z,99323.08
2019-05-03T05:44:39.481Z,99323.12
2019-05-03T05:46:58.634Z,99319.21
2019-05-03T05:49:08.127Z,99323.59
2019-05-03T05:51:16.194Z,99325.00
2019-05-03T05:53:25.393Z,99329.16
2019-05-03T05:56:09.713Z,99335.17
2019-05-03T05:58:25.630Z,99338.43
2019-05-03T06:00:40.360Z,99349.44
2019-05-03T06:02:47.579Z,99344.95
2019-05-03T06:04:54.939Z,99359.09
2019-05-03T06:07:19.551Z,99361.31
2019-05-03T06:09:54.995Z,99363.73
2019-05-03T06:12:09.043Z,99364.57
2019-05-03T06:14:24.504Z,99364.60
2019-05-03T06:16:45.208Z,99366.75
2019-05-03T06:19:10.183Z,99382.30
2019-05-03T06:21:25.563Z,99382.59
2019-05-03T06:23:41.037Z,99380.80
2019-05-03T06:25:48.387Z,99391.00
2019-05-03T06:27:55.881Z,99391.45
2019-05-03T06:30:24.846Z,99401.68
2019-05-03T06:32:35.438Z,99394.20
2019-05-03T06:34:42.750Z,99388.49
2019-05-03T06:36:51.725Z,99390.67
2019-05-03T06:38:59.127Z,99388.22
2019-05-03T06:41:06.993Z,99389.80
2019-05-03T06:43:15.768Z,99401.17
2019-05-03T06:45:25.098Z,99406.25
2019-05-03T06:47:34.726Z,99408.67
2019-05-03T06:49:44.954Z,99412.64
2019-05-03T06:51:51.153Z,99423.17
2019-05-03T06:53:58.536Z,99425.81
2019-05-03T06:56:05.984Z,99414.54
2019-05-03T06:58:15.187Z,99427.59
2019-05-03T07:00:45.133Z,99439.06
2019-05-03T07:02:58.568Z,99442.17
2019-05-03T07:05:08.344Z,99441.77
2019-05-03T07:07:35.427Z,99444.42
2019-05-03T07:10:01.903Z,99437.48
2019-05-03T07:12:09.445Z,99438.49
2019-05-03T07:14:17.465Z,99443.45
2019-05-03T07:16:25.465Z,99448.17
2019-05-03T07:18:35.018Z,99447.80
2019-05-03T07:20:49.691Z,99453.06
2019-05-03T07:22:57.372Z,99460.08
2019-05-03T07:25:05.068Z,99447.68
2019-05-03T07:27:12.467Z,99459.05
2019-05-03T07:29:20.071Z,99450.88
2019-05-03T07:31:27.578Z,99453.61
2019-05-03T07:33:36.086Z,99456.72
2019-05-03T07:35:44.501Z,99461.31
2019-05-03T07:37:52.195Z,99461.88
2019-05-03T07:40:17.221Z,99462.05
2019-05-03T07:42:25.629Z,99459.23
2019-05-03T07:44:34.793Z,99461.13
2019-05-03T07:46:44.967Z,99458.03
2019-05-03T07:48:51.820Z,99456.81
2019-05-03T07:50:59.283Z,99466.67
2019-05-03T07:53:06.803Z,99459.98
2019-05-03T07:55:14.999Z,99466.02
2019-05-03T07:57:45.251Z,99471.38
2019-05-03T07:59:52.764Z,99477.09
2019-05-03T08:02:00.186Z,99476.27
2019-05-03T08:04:08.397Z,99472.05
2019-05-03T08:06:15.786Z,99480.40
2019-05-03T08:08:24.965Z,99476.91
2019-05-03T08:10:34.393Z,99484.44
2019-05-03T08:12:41.476Z,99484.71
2019-05-03T08:14:49.888Z,99478.90
2019-05-03T08:16:57.376Z,99484.82
2019-05-03T08:19:05.195Z,99489.11
2019-05-03T08:21:14.787Z,99482.56
2019-05-03T08:23:27.502Z,99485.75
2019-05-03T08:25:31.196Z,99495.03
2019-05-03T08:27:38.679Z,99485.19
2019-05-03T08:29:46.132Z,99480.59
2019-05-03T08:32:18.522Z,99485.76
2019-05-03T08:34:45.309Z,99482.73
2019-05-03T08:36:58.386Z,99503.03
2019-05-03T08:39:06.632Z,99495.14
2019-05-03T08:41:17.060Z,99489.61
2019-05-03T08:43:25.571Z,99492.88
2019-05-03T08:45:34.681Z,99497.97
2019-05-03T08:47:42.504Z,99499.38
2019-05-03T08:49:50.240Z,99503.97
2019-05-03T08:51:57.917Z,99506.36
2019-05-03T08:54:07.443Z,99501.80
2019-05-03T08:56:15.687Z,99505.95
2019-05-03T08:58:25.423Z,99509.42
2019-05-03T09:00:35.306Z,99502.38
2019-05-03T09:02:44.743Z,99497.75
2019-05-03T09:04:54.540Z,99508.77
2019-05-03T09:07:01.571Z,99499.45
2019-05-03T09:09:17.031Z,99503.42
2019-05-03T09:11:31.883Z,99509.59
2019-05-03T09:13:52.608Z,99503.42
2019-05-03T09:16:00.077Z,99505.67
2019-05-03T09:18:07.657Z,99507.92
2019-05-03T09:20:16.681Z,99513.94
2019-05-03T09:22:25.561Z,99513.55
2019-05-03T09:24:35.115Z,99516.30
2019-05-03T09:26:44.779Z,99520.31
2019-05-03T09:28:52.362Z,99518.08
2019-05-03T09:30:59.893Z,99522.00
2019-05-03T09:33:09.202Z,99522.95
2019-05-03T09:35:29.738Z,99529.90
2019-05-03T09:37:26.473Z,99532.34
2019-05-03T09:39:35.480Z,99529.98
2019-05-03T09:41:45.069Z,99535.27
2019-05-03T09:43:52.827Z,99536.58
2019-05-03T09:46:00.681Z,99534.77
2019-05-03T09:48:08.596Z,99537.43
2019-05-03T09:50:16.736Z,99536.86
2019-05-03T09:52:25.004Z,99522.86
2019-05-03T09:54:39.241Z,99534.97
2019-05-03T09:57:02.041Z,99524.64
2019-05-03T09:59:09.871Z,99526.13
2019-05-03T10:01:17.403Z,99530.28
2019-05-03T10:03:24.878Z,99530.69
2019-05-03T10:05:34.925Z,99526.80
2019-05-03T10:07:41.666Z,99519.80
2019-05-03T10:09:49.370Z,99523.14
2019-05-03T10:11:57.117Z,99516.77
2019-05-03T10:14:04.898Z,99516.34
2019-05-03T10:16:12.602Z,99512.69
2019-05-03T10:18:20.122Z,99517.91
2019-05-03T10:20:27.974Z,99517.28
2019-05-03T10:22:35.555Z,99505.92
2019-05-03T10:24:45.093Z,99507.77
2019-05-03T10:26:52.205Z,99508.91
2019-05-03T10:28:59.626Z,99502.78
2019-05-03T10:31:07.882Z,99507.27
2019-05-03T10:33:20.296Z,99503.12
2019-05-03T10:35:27.787Z,99509.42
2019-05-03T10:37:35.963Z,99501.86
2019-05-03T10:39:45.530Z,99495.26
2019-05-03T10:41:54.929Z,99492.55
2019-05-03T10:44:02.439Z,99495.19
2019-05-03T10:46:09.761Z,99486.77
2019-05-03T10:48:17.891Z,99492.26
2019-05-03T10:50:25.452Z,99493.64
2019-05-03T10:52:40.534Z,99486.33
2019-05-03T10:54:47.963Z,99495.94
2019-05-03T10:57:01.191Z,99482.72
2019-05-03T10:59:09.796Z,99481.38
2019-05-03T11:01:19.800Z,99496.81
2019-05-03T11:03:27.251Z,99489.59
2019-05-03T11:05:34.922Z,99496.05
2019-05-03T11:07:42.337Z,99493.60
2019-05-03T11:09:52.500Z,99487.03
2019-05-03T11:12:01.130Z,99496.47
2019-05-03T11:14:08.812Z,99494.55
2019-05-03T11:16:16.399Z,99483.19
2019-05-03T11:18:25.268Z,99499.84
2019-05-03T11:20:37.933Z,99494.30
2019-05-03T11:22:45.561Z,99499.36
2019-05-03T11:24:54.659Z,99499.25
2019-05-03T11:27:04.502Z,99497.66
2019-05-03T11:29:12.013Z,99493.67
2019-05-03T11:31:38.046Z,99493.08
2019-05-03T11:33:47.049Z,99500.19
2019-05-03T11:36:16.624Z,99496.59
2019-05-03T11:38:26.461Z,99497.45
2019-05-03T11:40:34.603Z,99485.52
2019-05-03T11:42:42.288Z,99495.74
2019-05-03T11:44:49.639Z,99495.97
2019-05-03T11:46:57.196Z,99503.44
2019-05-03T11:49:05.633Z,99500.56
2019-05-03T11:51:15.087Z,99489.70
2019-05-03T11:53:22.377Z,99489.70
2019-05-03T11:55:29.801Z,99500.73
2019-05-03T11:57:56.716Z,99494.66
2019-05-03T12:00:05.393Z,99477.06
2019-05-03T12:02:24.804Z,99492.06
2019-05-03T12:04:32.281Z,99490.31
2019-05-03T12:06:40.707Z,99484.45
2019-05-03T12:08:48.093Z,99485.43
2019-05-03T12:11:01.109Z,99487.12
2019-05-03T12:13:15.632Z,99493.76
2019-05-03T12:15:22.507Z,99489.06
2019-05-03T12:17:34.597Z,99491.95
2019-05-03T12:19:42.989Z,99493.95
2019-05-03T12:21:51.998Z,99484.86
2019-05-03T12:24:00.579Z,99484.78
2019-05-03T12:26:12.938Z,99484.75
2019-05-03T12:28:17.987Z,99481.08
2019-05-03T12:30:27.772Z,99484.16
2019-05-03T12:32:36.048Z,99487.84
2019-05-03T12:34:44.477Z,99476.61
2019-05-03T12:36:51.889Z,99479.25
2019-05-03T12:38:59.457Z,99491.52
2019-05-03T12:41:07.094Z,99487.09
2019-05-03T12:43:15.033Z,99485.98
2019-05-03T12:45:24.589Z,99482.82
2019-05-03T12:47:32.055Z,99489.95
2019-05-03T12:49:39.505Z,99485.62
2019-05-03T12:51:46.990Z,99482.67
2019-05-03T12:53:55.223Z,99470.80
2019-05-03T12:56:09.746Z,99477.86
2019-05-03T12:58:12.514Z,99465.27
2019-05-03T13:00:47.927Z,99473.47
2019-05-03T13:02:56.840Z,99473.78
2019-05-03T13:05:04.880Z,99484.00
2019-05-03T13:07:30.299Z,99474.84
2019-05-03T13:09:37.740Z,99462.70
2019-05-03T13:11:55.370Z,99472.36
2019-05-03T13:13:55.834Z,99469.61
2019-05-03T13:16:04.625Z,99464.59
2019-05-03T13:18:15.560Z,99462.95
2019-05-03T13:20:25.064Z,99469.58
2019-05-03T13:22:35.048Z,99468.75
2019-05-03T13:24:44.694Z,99466.59
2019-05-03T13:26:52.021Z,99470.73
2019-05-03T13:28:59.923Z,99471.27
2019-05-03T13:31:07.808Z,99474.10
2019-05-03T13:33:15.330Z,99471.92
2019-05-03T13:35:22.960Z,99480.53
2019-05-03T13:37:30.463Z,99476.58
2019-05-03T13:39:37.947Z,99484.48
2019-05-03T13:41:45.725Z,99480.63
2019-05-03T13:43:54.892Z,99481.16
2019-05-03T13:46:02.483Z,99477.52
2019-05-03T13:48:09.874Z,99478.50
2019-05-03T13:50:17.379Z,99479.60
2019-05-03T13:52:25.091Z,99482.94
2019-05-03T13:54:32.576Z,99475.59
2019-05-03T13:56:39.884Z,99476.00
2019-05-03T13:58:48.194Z,99473.67
2019-05-03T14:00:55.631Z,99466.58
2019-05-03T14:03:04.576Z,99479.06
2019-05-03T14:05:12.468Z,99471.59
2019-05-03T14:07:19.882Z,99482.91
2019-05-03T14:09:27.353Z,99467.73
2019-05-03T14:11:35.432Z,99468.09
2019-05-03T14:13:44.561Z,99468.31
2019-05-03T14:15:52.025Z,99475.17
2019-05-03T14:17:59.548Z,99479.97
2019-05-03T14:20:23.106Z,99480.31
2019-05-03T14:22:32.483Z,99486.47
2019-05-03T14:24:39.857Z,99489.84
2019-05-03T14:26:47.329Z,99492.38
2019-05-03T14:28:55.002Z,99496.72
2019-05-03T14:31:02.426Z,99488.91
2019-05-03T14:33:09.850Z,99484.30
2019-05-03T14:35:17.399Z,99489.73
2019-05-03T14:37:25.147Z,99488.29
2019-05-03T14:39:32.725Z,99484.69
2019-05-03T14:41:40.288Z,99494.43
2019-05-03T14:43:47.815Z,99498.39
2019-05-03T14:45:55.258Z,99500.08
2019-05-03T14:48:02.777Z,99504.50
2019-05-03T14:50:10.587Z,99500.30
2019-05-03T14:52:18.077Z,99492.25
2019-05-03T14:54:27.092Z,99495.52
2019-05-03T14:56:48.924Z,99495.39
2019-05-03T14:59:15.470Z,99498.28
2019-05-03T15:01:34.611Z,99502.48
2019-05-03T15:03:41.605Z,99504.80
2019-05-03T15:05:49.061Z,99495.27
2019-05-03T15:07:56.524Z,99498.64
2019-05-03T15:10:05.619Z,99493.48
2019-05-03T15:12:13.087Z,99497.19
2019-05-03T15:14:20.503Z,99499.83
2019-05-03T15:16:28.241Z,99499.72
2019-05-03T15:18:35.696Z,99507.66
2019-05-03T15:20:45.188Z,99505.73
2019-05-03T15:22:52.345Z,99507.89
2019-05-03T15:24:59.905Z,99501.72
2019-05-03T15:27:07.705Z,99512.52
2019-05-03T15:29:15.638Z,99509.22
2019-05-03T15:31:24.576Z,99517.86
2019-05-03T15:33:32.225Z,99516.39
2019-05-03T15:35:39.814Z,99510.82
2019-05-03T15:37:47.262Z,99510.97
2019-05-03T15:39:54.946Z,99505.84
2019-05-03T15:42:02.378Z,99510.86
2019-05-03T15:44:37.650Z,99515.45
2019-05-03T15:46:56.571Z,99512.94
2019-05-03T15:49:04.608Z,99520.23
2019-05-03T15:51:12.272Z,99511.81
2019-05-03T15:53:19.812Z,99523.34
2019-05-03T15:55:27.341Z,99526.20
2019-05-03T15:57:35.698Z,99526.77
2019-05-03T15:59:44.507Z,99522.06
2019-05-03T16:01:52.042Z,99527.49
2019-05-03T16:03:59.649Z,99519.45
2019-05-03T16:06:07.242Z,99519.59
2019-05-03T16:08:15.405Z,99526.31
2019-05-03T16:10:24.754Z,99521.58
2019-05-03T16:12:32.057Z,99527.70
2019-05-03T16:14:39.550Z,99531.04
2019-05-03T16:16:46.998Z,99532.05
2019-05-03T16:18:54.508Z,99528.77
2019-05-03T16:21:01.922Z,99534.49
2019-05-03T16:23:09.295Z,99538.70
2019-05-03T16:25:17.136Z,99540.02
2019-05-03T16:27:49.677Z,99550.59
2019-05-03T16:29:57.295Z,99545.41
2019-05-03T16:32:05.282Z,99543.89
2019-05-03T16:34:12.876Z,99555.09
2019-05-03T16:36:21.032Z,99550.87
2019-05-03T16:38:28.296Z,99549.27
2019-05-03T16:40:36.106Z,99551.86
2019-05-03T16:42:44.394Z,99558.61
2019-05-03T16:44:51.947Z,99553.86
2019-05-03T16:46:59.790Z,99566.23
2019-05-03T16:49:08.390Z,99563.67
2019-05-03T16:51:17.314Z,99565.78
2019-05-03T16:53:25.528Z,99568.32
2019-05-03T16:55:35.009Z,99569.44
2019-05-03T16:57:44.247Z,99572.66
2019-05-03T16:59:51.425Z,99569.41
2019-05-03T17:01:58.913Z,99574.87
2019-05-03T17:04:30.573Z,99576.52
2019-05-03T17:06:48.474Z,99578.94
2019-05-03T17:09:14.464Z,99578.91
2019-05-03T17:11:21.977Z,99578.42
2019-05-03T17:13:29.930Z,99580.00
2019-05-03T17:15:37.441Z,99582.64
2019-05-03T17:17:45.200Z,99582.22
2019-05-03T17:19:54.959Z,99588.55
2019-05-03T17:22:01.843Z,99587.98
2019-05-03T17:24:09.399Z,99593.00
2019-05-03T17:26:17.491Z,99590.09
2019-05-03T17:28:25.276Z,99591.09
2019-05-03T17:30:35.151Z,99595.51
2019-05-03T17:32:41.977Z,99591.72
2019-05-03T17:34:49.520Z,99593.28
2019-05-03T17:36:56.961Z,99597.23
2019-05-03T17:39:08.660Z,99600.78
2019-05-03T17:41:36.282Z,99602.51
2019-05-03T17:43:50.571Z,99600.76
2019-05-03T17:45:59.157Z,99606.35
2019-05-03T17:48:07.136Z,99602.33
2019-05-03T17:50:14.874Z,99609.80
2019-05-03T17:52:41.000Z,99608.52
2019-05-03T17:55:05.754Z,99613.13
2019-05-03T17:57:21.075Z,99619.77
2019-05-03T17:59:39.272Z,99619.02
2019-05-03T18:02:06.678Z,99622.05
2019-05-03T18:04:20.455Z,99623.58
2019-05-03T18:06:30.769Z,99631.12
2019-05-03T18:08:47.025Z,99629.93
2019-05-03T18:11:00.985Z,99635.11
2019-05-03T18:13:08.380Z,99628.91
2019-05-03T18:15:16.123Z,99635.26
2019-05-03T18:17:24.749Z,99629.69
2019-05-03T18:19:34.336Z,99638.83
2019-05-03T18:21:42.154Z,99640.53
2019-05-03T18:23:49.722Z,99648.14
2019-05-03T18:25:57.261Z,99648.27
2019-05-03T18:28:05.331Z,99653.62
2019-05-03T18:30:13.104Z,99656.53
2019-05-03T18:32:21.058Z,99658.34
2019-05-03T18:34:28.561Z,99657.13
2019-05-03T18:36:36.540Z,99662.68
2019-05-03T18:38:44.695Z,99654.52
2019-05-03T18:40:52.359Z,99665.23
2019-05-03T18:43:05.622Z,99664.39
2019-05-03T18:45:29.652Z,99661.66
2019-05-03T18:47:38.433Z,99662.81
2019-05-03T18:49:46.054Z,99667.53
2019-05-03T18:51:55.336Z,99666.69
2019-05-03T18:54:05.350Z,99673.73
2019-05-03T18:56:14.631Z,99676.14
2019-05-03T18:58:22.100Z,99679.95
2019-05-03T19:00:31.381Z,99683.83
2019-05-03T19:02:39.737Z,99683.13
2019-05-03T19:04:54.446Z,99677.17
2019-05-03T19:07:04.640Z,99694.35
2019-05-03T19:09:20.553Z,99692.28
2019-05-03T19:11:37.635Z,99696.09
2019-05-03T19:13:55.318Z,99691.30
2019-05-03T19:16:09.776Z,99701.81
2019-05-03T19:18:28.768Z,99704.59
2019-05-03T19:20:36.627Z,99703.23
2019-05-03T19:22:44.084Z,99708.27
2019-05-03T19:24:51.638Z,99710.53
2019-05-03T19:26:59.655Z,99719.01
2019-05-03T19:29:07.281Z,99708.61
2019-05-03T19:31:15.578Z,99712.19
2019-05-03T19:33:23.135Z,99716.82
2019-05-03T19:35:30.612Z,99711.09
2019-05-03T19:37:38.268Z,99710.61
2019-05-03T19:39:45.855Z,99718.38
2019-05-03T19:41:55.147Z,99718.06
2019-05-03T19:44:04.239Z,99722.83
2019-05-03T19:46:11.870Z,99712.86
2019-05-03T19:48:19.589Z,99715.77
2019-05-03T19:50:27.321Z,99718.01
2019-05-03T19:52:38.782Z,99719.73
2019-05-03T19:54:46.212Z,99716.17
2019-05-03T19:56:55.661Z,99712.02
2019-05-03T19:59:06.584Z,99717.14
2019-05-03T20:01:42.080Z,99715.91
2019-05-03T20:03:56.123Z,99716.74
2019-05-03T20:06:11.080Z,99712.51
2019-05-03T20:08:28.534Z,99712.81
2019-05-03T20:10:36.090Z,99708.11
2019-05-03T20:12:43.831Z,99716.92
2019-05-03T20:14:51.301Z,99714.29
2019-05-03T20:16:59.087Z,99717.52
2019-05-03T20:19:17.826Z,99719.73
2019-05-03T20:21:15.886Z,99723.27
2019-05-03T20:23:25.052Z,99719.03
2019-05-03T20:25:32.672Z,99716.95
2019-05-03T20:27:40.059Z,99722.49
2019-05-03T20:29:47.786Z,99717.86
2019-05-03T20:31:55.455Z,99717.98
2019-05-03T20:34:05.217Z,99724.54
2019-05-03T20:36:12.251Z,99718.09
2019-05-03T20:38:19.805Z,99718.34
2019-05-03T20:40:27.417Z,99719.25
2019-05-03T20:42:54.343Z,99718.72
2019-05-03T20:45:02.545Z,99721.34
2019-05-03T20:47:14.994Z,99713.14
2019-05-03T20:49:22.938Z,99712.98
2019-05-03T20:51:31.425Z,99711.52
2019-05-03T20:53:38.946Z,99711.58
2019-05-03T20:55:46.409Z,99711.45
2019-05-03T20:57:54.964Z,99721.28
2019-05-03T21:00:04.487Z,99721.67
2019-05-03T21:02:12.298Z,99722.05
2019-05-03T21:04:20.128Z,99720.00
2019-05-03T21:06:35.369Z,99719.06
2019-05-03T21:08:49.663Z,99717.69
2019-05-03T21:10:47.045Z,99713.82
2019-05-03T21:12:54.628Z,99712.79
2019-05-03T21:15:04.951Z,99725.10
2019-05-03T21:17:20.241Z,99717.98
2019-05-03T21:19:44.696Z,99713.23
2019-05-03T21:22:05.597Z,99720.05
2019-05-03T21:24:18.705Z,99721.61
2019-05-03T21:26:26.232Z,99719.67
2019-05-03T21:28:34.634Z,99714.13
2019-05-03T21:30:42.350Z,99718.56
2019-05-03T21:32:50.054Z,99726.37
2019-05-03T21:34:57.572Z,99717.20
2019-05-03T21:37:05.178Z,99713.59
2019-05-03T21:39:14.511Z,99721.77
2019-05-03T21:41:21.908Z,99714.97
2019-05-03T21:43:29.544Z,99719.31
2019-05-03T21:45:45.649Z,99715.91
2019-05-03T21:48:16.038Z,99716.32
2019-05-03T21:50:25.004Z,99719.72
2019-05-03T21:52:32.631Z,99723.33
2019-05-03T21:54:40.142Z,99723.64
2019-05-03T21:56:47.360Z,99721.75
2019-05-03T21:58:55.436Z,99725.59
2019-05-03T22:01:07.234Z,99722.45
2019-05-03T22:03:14.690Z,99727.16
2019-05-03T22:05:22.095Z,99727.37
2019-05-03T22:07:29.428Z,99723.90
2019-05-03T22:09:36.798Z,99727.71
2019-05-03T22:11:44.706Z,99725.27
2019-05-03T22:13:56.877Z,99726.20
2019-05-03T22:16:10.513Z,99727.03
2019-05-03T22:18:28.487Z,99729.91
2019-05-03T22:20:45.438Z,99723.92
2019-05-03T22:22:58.482Z,99729.67
2019-05-03T22:25:06.983Z,99726.18
2019-05-03T22:27:16.839Z,99734.74
2019-05-03T22:29:25.473Z,99734.74
2019-05-03T22:31:34.945Z,99730.55
2019-05-03T22:33:44.643Z,99726.11
2019-05-03T22:36:05.514Z,99726.72
2019-05-03T22:38:04.566Z,99728.45
2019-05-03T22:40:12.031Z,99719.59
2019-05-03T22:42:19.431Z,99723.73
2019-05-03T22:44:26.759Z,99727.33
2019-05-03T22:46:34.020Z,99727.00
2019-05-03T22:48:41.325Z,99727.00
2019-05-03T22:50:48.653Z,99730.67
2019-05-03T22:52:55.854Z,99724.22
2019-05-03T22:55:04.707Z,99732.05
2019-05-03T22:57:12.057Z,99722.29
2019-05-03T22:59:19.454Z,99724.39
2019-05-03T23:01:26.863Z,99718.85
2019-05-03T23:03:44.643Z,99718.83
2019-05-03T23:05:51.711Z,99717.95
2019-05-03T23:07:59.033Z,99720.21
2019-05-03T23:10:06.974Z,99716.52
2019-05-03T23:12:14.256Z,99715.20
2019-05-03T23:14:21.593Z,99723.70
2019-05-03T23:16:28.846Z,99708.56
2019-05-03T23:18:36.272Z,99706.61
2019-05-03T23:20:59.012Z,99710.15
2019-05-03T23:23:06.636Z,99704.13
2019-05-03T23:25:14.385Z,99706.72
2019-05-03T23:27:21.872Z,99713.63
2019-05-03T23:29:29.155Z,99711.31
2019-05-03T23:31:36.522Z,99703.24
2019-05-03T23:33:45.227Z,99708.00
2019-05-03T23:35:52.713Z,99698.64
2019-05-03T23:38:00.027Z,99697.34
2019-05-03T23:40:07.955Z,99704.77
2019-05-03T23:42:15.550Z,99706.59
2019-05-03T23:44:24.467Z,99707.95
2019-05-03T23:46:37.345Z,99706.91
2019-05-03T23:48:44.837Z,99708.08
2019-05-03T23:50:52.314Z,99703.70
2019-05-03T23:52:59.719Z,99702.07
2019-05-03T23:55:31.738Z,99697.77
2019-05-03T23:57:39.080Z,99697.49
2019-05-03T23:59:46.438Z,99706.95
